createdAt,value
2023-10-06T00:00:51.802Z,99.90
2023-10-06T00:03:26.828Z,99.90
2023-10-06T00:06:00.405Z,99.90
2023-10-06T00:08:34.459Z,99.90
2023-10-06T00:11:13.262Z,99.90
2023-10-06T00:14:01.986Z,99.90
2023-10-06T00:16:41.499Z,99.90
2023-10-06T00:19:28.112Z,99.90
2023-10-06T00:22:10.730Z,99.90
2023-10-06T00:24:44.994Z,99.90
2023-10-06T00:27:24.566Z,99.90
2023-10-06T00:29:58.944Z,99.90
2023-10-06T00:32:33.454Z,99.90
2023-10-06T00:35:13.000Z,99.90
2023-10-06T00:37:46.658Z,99.90
2023-10-06T00:40:21.554Z,99.90
2023-10-06T00:42:58.065Z,99.90
2023-10-06T00:45:31.852Z,99.90
2023-10-06T00:48:10.222Z,99.90
2023-10-06T00:50:45.761Z,99.90
2023-10-06T00:53:21.681Z,99.90
2023-10-06T00:55:57.722Z,99.90
2023-10-06T00:58:35.486Z,99.90
2023-10-06T01:01:10.115Z,99.90
2023-10-06T01:03:45.212Z,99.90
2023-10-06T01:06:24.469Z,99.90
2023-10-06T01:09:08.056Z,99.90
2023-10-06T01:11:46.655Z,99.90
2023-10-06T01:14:26.429Z,99.90
2023-10-06T01:17:16.000Z,99.90
2023-10-06T01:20:11.464Z,99.90
2023-10-06T01:22:46.401Z,99.90
2023-10-06T01:25:22.836Z,99.90
2023-10-06T01:27:56.399Z,99.90
2023-10-06T01:30:30.030Z,99.90
2023-10-06T01:33:06.072Z,99.90
2023-10-06T01:35:43.961Z,99.90
2023-10-06T01:38:24.005Z,99.90
2023-10-06T01:41:02.860Z,99.90
2023-10-06T01:43:36.454Z,99.90
2023-10-06T01:46:15.370Z,99.90
2023-10-06T01:48:48.981Z,99.90
2023-10-06T01:51:24.229Z,99.90
2023-10-06T01:53:59.253Z,99.90
2023-10-06T01:56:32.950Z,99.90
2023-10-06T01:59:07.151Z,99.90
2023-10-06T02:01:44.008Z,99.90
2023-10-06T02:04:19.435Z,99.90
2023-10-06T02:06:53.521Z,99.90
2023-10-06T02:09:29.477Z,99.90
2023-10-06T02:12:03.871Z,99.90
2023-10-06T02:14:37.999Z,99.90
2023-10-06T02:17:13.336Z,99.90
2023-10-06T02:19:47.141Z,99.90
2023-10-06T02:22:20.813Z,99.90
2023-10-06T02:24:55.872Z,99.90
2023-10-06T02:27:29.422Z,99.90
2023-10-06T02:30:05.504Z,99.90
2023-10-06T02:32:39.129Z,99.90
2023-10-06T02:35:14.450Z,99.90
2023-10-06T02:37:48.365Z,99.90
2023-10-06T02:40:31.019Z,99.90
2023-10-06T02:43:08.178Z,99.90
2023-10-06T02:45:42.762Z,99.90
2023-10-06T02:48:17.626Z,99.90
2023-10-06T02:50:56.813Z,99.90
2023-10-06T02:53:36.441Z,99.90
2023-10-06T02:56:17.278Z,99.90
2023-10-06T02:58:53.614Z,99.90
2023-10-06T03:01:27.253Z,99.90
2023-10-06T03:04:09.338Z,99.90
2023-10-06T03:06:42.889Z,99.90
2023-10-06T03:09:19.818Z,99.90
2023-10-06T03:11:55.206Z,99.90
2023-10-06T03:14:39.950Z,99.90
2023-10-06T03:17:15.774Z,99.90
2023-10-06T03:20:05.164Z,99.90
2023-10-06T03:22:41.441Z,99.90
2023-10-06T03:25:18.220Z,99.90
2023-10-06T03:27:55.891Z,99.90
2023-10-06T03:30:35.712Z,99.90
2023-10-06T03:33:14.406Z,99.90
2023-10-06T03:35:49.662Z,99.90
2023-10-06T03:38:37.979Z,99.90
2023-10-06T03:41:20.011Z,99.90
2023-10-06T03:43:56.769Z,99.90
2023-10-06T03:46:37.941Z,99.90
2023-10-06T03:49:14.762Z,99.90
2023-10-06T03:51:48.743Z,99.90
2023-10-06T03:54:22.253Z,99.90
2023-10-06T03:56:55.757Z,99.90
2023-10-06T03:59:30.698Z,99.90
2023-10-06T04:02:04.621Z,99.90
2023-10-06T04:04:40.366Z,99.90
2023-10-06T04:07:14.656Z,99.90
2023-10-06T04:09:50.987Z,99.90
2023-10-06T04:12:24.545Z,99.90
2023-10-06T04:14:59.624Z,99.90
2023-10-06T04:17:33.123Z,99.90
2023-10-06T04:20:14.195Z,99.90
2023-10-06T04:22:47.943Z,99.90
2023-10-06T04:25:22.272Z,99.90
2023-10-06T04:27:55.999Z,99.90
2023-10-06T04:30:31.556Z,99.90
2023-10-06T04:33:05.934Z,99.90
2023-10-06T04:35:41.786Z,99.90
2023-10-06T04:38:15.443Z,99.90
2023-10-06T04:40:49.624Z,99.90
2023-10-06T04:43:23.109Z,99.90
2023-10-06T04:45:58.074Z,99.90
2023-10-06T04:48:31.827Z,99.90
2023-10-06T04:51:05.662Z,99.90
2023-10-06T04:53:39.749Z,99.90
2023-10-06T04:56:13.716Z,99.90
2023-10-06T04:58:47.370Z,99.90
2023-10-06T05:01:22.417Z,99.90
2023-10-06T05:03:56.003Z,99.90
2023-10-06T05:06:30.597Z,99.90
2023-10-06T05:09:04.416Z,99.90
2023-10-06T05:11:39.623Z,99.90
2023-10-06T05:14:13.414Z,99.90
2023-10-06T05:16:49.392Z,99.90
2023-10-06T05:19:22.914Z,99.90
2023-10-06T05:21:56.871Z,99.90
2023-10-06T05:24:30.659Z,99.90
2023-10-06T05:27:04.782Z,99.90
2023-10-06T05:29:38.736Z,99.90
2023-10-06T05:32:15.359Z,99.90
2023-10-06T05:34:49.425Z,99.90
2023-10-06T05:37:24.149Z,99.90
2023-10-06T05:39:57.701Z,99.90
2023-10-06T05:42:31.359Z,99.90
2023-10-06T05:45:13.900Z,99.90
2023-10-06T05:47:51.946Z,99.90
2023-10-06T05:50:36.467Z,99.90
2023-10-06T05:53:13.720Z,99.90
2023-10-06T05:55:50.956Z,99.90
2023-10-06T05:58:24.925Z,99.90
2023-10-06T06:01:02.001Z,99.90
2023-10-06T06:03:40.210Z,99.90
2023-10-06T06:06:15.981Z,99.90
2023-10-06T06:08:50.095Z,99.90
2023-10-06T06:11:23.780Z,99.90
2023-10-06T06:14:14.909Z,99.90
2023-10-06T06:16:49.762Z,99.90
2023-10-06T06:19:24.819Z,99.90
2023-10-06T06:21:59.215Z,99.90
2023-10-06T06:24:32.865Z,99.90
2023-10-06T06:27:07.926Z,99.90
2023-10-06T06:29:42.012Z,99.90
2023-10-06T06:32:15.584Z,99.90
2023-10-06T06:34:50.633Z,99.90
2023-10-06T06:37:25.070Z,99.90
2023-10-06T06:39:58.822Z,99.90
2023-10-06T06:42:32.474Z,99.90
2023-10-06T06:45:07.555Z,99.90
2023-10-06T06:47:41.172Z,99.90
2023-10-06T06:50:18.490Z,99.90
2023-10-06T06:52:55.194Z,99.90
2023-10-06T06:55:28.909Z,99.90
2023-10-06T06:58:07.610Z,99.90
2023-10-06T07:00:41.939Z,99.90
2023-10-06T07:03:16.249Z,99.90
2023-10-06T07:05:51.441Z,99.90
2023-10-06T07:08:25.299Z,99.90
2023-10-06T07:10:59.204Z,99.90
2023-10-06T07:13:32.808Z,99.90
2023-10-06T07:16:10.812Z,99.90
2023-10-06T07:18:44.552Z,99.90
2023-10-06T07:21:20.226Z,99.90
2023-10-06T07:23:57.775Z,99.90
2023-10-06T07:26:32.316Z,99.90
2023-10-06T07:29:06.764Z,99.90
2023-10-06T07:31:40.726Z,99.90
2023-10-06T07:34:15.451Z,99.90
2023-10-06T07:36:50.566Z,99.90
2023-10-06T07:39:24.154Z,99.90
2023-10-06T07:41:57.859Z,99.90
2023-10-06T07:44:34.440Z,99.90
2023-10-06T07:47:08.065Z,99.90
2023-10-06T07:49:42.132Z,99.90
2023-10-06T07:52:18.506Z,99.90
2023-10-06T07:54:53.025Z,99.90
2023-10-06T07:57:32.553Z,99.90
2023-10-06T08:00:08.277Z,99.90
2023-10-06T08:02:48.109Z,99.90
2023-10-06T08:05:21.967Z,99.90
2023-10-06T08:07:58.344Z,99.90
2023-10-06T08:10:32.373Z,99.90
2023-10-06T08:13:06.138Z,99.90
2023-10-06T08:15:46.244Z,99.90
2023-10-06T08:18:21.270Z,99.90
2023-10-06T08:20:55.916Z,99.90
2023-10-06T08:23:32.889Z,99.90
2023-10-06T08:26:10.340Z,99.90
2023-10-06T08:28:44.185Z,99.90
2023-10-06T08:31:18.054Z,99.90
2023-10-06T08:33:51.785Z,99.90
2023-10-06T08:36:25.453Z,99.90
2023-10-06T08:39:02.134Z,99.90
2023-10-06T08:41:44.901Z,99.90
2023-10-06T08:44:21.360Z,99.90
2023-10-06T08:46:55.104Z,99.90
2023-10-06T08:49:29.105Z,99.90
2023-10-06T08:52:04.893Z,99.90
2023-10-06T08:54:41.559Z,99.90
2023-10-06T08:57:17.185Z,99.90
2023-10-06T08:59:50.744Z,99.90
2023-10-06T09:02:27.037Z,99.90
2023-10-06T09:05:01.155Z,99.90
2023-10-06T09:07:35.680Z,99.90
2023-10-06T09:10:21.296Z,99.90
2023-10-06T09:13:02.154Z,99.90
2023-10-06T09:15:37.379Z,99.90
2023-10-06T09:18:21.894Z,99.90
2023-10-06T09:20:58.261Z,99.90
2023-10-06T09:23:33.108Z,99.60
2023-10-06T09:26:10.074Z,99.70
2023-10-06T09:28:54.336Z,99.20
2023-10-06T09:31:38.958Z,98.30
2023-10-06T09:34:13.136Z,99.40
2023-10-06T09:36:47.613Z,99.90
2023-10-06T09:39:30.898Z,99.90
2023-10-06T09:42:09.296Z,99.90
2023-10-06T09:44:44.184Z,99.30
2023-10-06T09:47:20.330Z,99.40
2023-10-06T09:49:54.862Z,99.30
2023-10-06T09:52:29.904Z,98.50
2023-10-06T09:55:05.654Z,97.70
2023-10-06T09:57:44.656Z,97.00
2023-10-06T10:00:20.491Z,95.20
2023-10-06T10:02:54.662Z,95.60
2023-10-06T10:05:29.100Z,96.30
2023-10-06T10:08:03.936Z,95.20
2023-10-06T10:10:40.798Z,94.90
2023-10-06T10:13:41.859Z,95.00
2023-10-06T10:16:28.787Z,93.60
2023-10-06T10:19:08.603Z,92.10
2023-10-06T10:21:43.501Z,91.70
2023-10-06T10:25:05.445Z,92.20
2023-10-06T10:27:18.236Z,90.60
2023-10-06T10:29:54.219Z,90.30
2023-10-06T10:32:32.092Z,90.70
2023-10-06T10:35:18.138Z,89.10
2023-10-06T10:38:04.327Z,86.30
2023-10-06T10:40:49.294Z,88.50
2023-10-06T10:43:23.590Z,84.40
2023-10-06T10:46:00.357Z,87.80
2023-10-06T10:48:38.361Z,83.70
2023-10-06T10:51:13.437Z,82.00
2023-10-06T10:53:50.947Z,82.00
2023-10-06T10:56:36.314Z,80.90
2023-10-06T10:59:10.424Z,78.60
2023-10-06T11:01:46.599Z,79.10
2023-10-06T11:04:30.843Z,76.60
2023-10-06T11:07:12.456Z,75.50
2023-10-06T11:09:49.415Z,73.80
2023-10-06T11:12:26.128Z,74.50
2023-10-06T11:15:15.071Z,71.40
2023-10-06T11:17:50.243Z,71.60
2023-10-06T11:20:26.378Z,69.70
2023-10-06T11:23:02.096Z,69.70
2023-10-06T11:25:37.457Z,69.50
2023-10-06T11:28:13.739Z,69.40
2023-10-06T11:30:47.533Z,69.70
2023-10-06T11:33:24.264Z,70.40
2023-10-06T11:35:59.075Z,70.20
2023-10-06T11:38:33.280Z,70.70
2023-10-06T11:41:07.283Z,70.10
2023-10-06T11:43:40.869Z,69.90
2023-10-06T11:46:16.609Z,67.60
2023-10-06T11:48:53.727Z,68.50
2023-10-06T11:51:27.794Z,66.50
2023-10-06T11:54:01.519Z,67.30
2023-10-06T11:56:35.089Z,65.10
2023-10-06T11:59:21.204Z,67.10
2023-10-06T12:01:54.987Z,62.60
2023-10-06T12:04:32.716Z,66.00
2023-10-06T12:07:06.405Z,66.80
2023-10-06T12:09:40.037Z,67.20
2023-10-06T12:12:13.585Z,67.70
2023-10-06T12:14:47.695Z,66.50
2023-10-06T12:17:21.724Z,65.80
2023-10-06T12:19:56.826Z,66.10
2023-10-06T12:25:13.743Z,65.10
2023-10-06T12:27:48.229Z,63.90
2023-10-06T12:30:23.155Z,64.50
2023-10-06T12:32:59.320Z,65.60
2023-10-06T12:35:38.043Z,66.90
2023-10-06T12:38:11.682Z,65.70
2023-10-06T12:40:48.248Z,65.80
2023-10-06T12:43:21.912Z,65.30
2023-10-06T12:45:55.503Z,63.50
2023-10-06T12:48:31.613Z,63.60
2023-10-06T12:51:07.662Z,63.10
2023-10-06T12:53:41.750Z,62.30
2023-10-06T12:56:16.566Z,61.80
2023-10-06T12:58:50.266Z,63.80
2023-10-06T13:01:26.895Z,64.10
2023-10-06T13:04:00.731Z,62.20
2023-10-06T13:06:36.928Z,63.20
2023-10-06T13:09:18.630Z,61.30
2023-10-06T13:11:52.220Z,62.30
2023-10-06T13:14:25.840Z,62.40
2023-10-06T13:16:59.422Z,62.60
2023-10-06T13:19:33.003Z,63.80
2023-10-06T13:22:08.350Z,63.30
2023-10-06T13:24:42.042Z,63.20
2023-10-06T13:27:15.640Z,64.70
2023-10-06T13:29:49.309Z,63.80
2023-10-06T13:32:22.944Z,63.60
2023-10-06T13:34:56.570Z,64.90
2023-10-06T13:37:31.668Z,64.00
2023-10-06T13:40:11.297Z,65.60
2023-10-06T13:42:47.707Z,66.00
2023-10-06T13:45:23.658Z,67.50
2023-10-06T13:48:04.403Z,65.70
2023-10-06T13:50:38.868Z,66.20
2023-10-06T13:53:16.482Z,65.60
2023-10-06T13:55:51.331Z,65.60
2023-10-06T13:58:26.096Z,67.20
2023-10-06T14:01:00.019Z,67.60
2023-10-06T14:03:33.857Z,67.70
2023-10-06T14:06:08.901Z,66.40
2023-10-06T14:08:45.282Z,66.90
2023-10-06T14:11:19.069Z,67.40
2023-10-06T14:13:52.743Z,69.00
2023-10-06T14:16:26.860Z,69.90
2023-10-06T14:19:00.692Z,69.50
2023-10-06T14:21:35.380Z,70.20
2023-10-06T14:24:12.078Z,70.90
2023-10-06T14:26:45.836Z,71.00
2023-10-06T14:29:20.476Z,70.80
2023-10-06T14:32:12.800Z,71.70
2023-10-06T14:34:59.578Z,72.70
2023-10-06T14:37:40.389Z,73.60
2023-10-06T14:40:32.521Z,75.40
2023-10-06T14:43:31.663Z,76.50
2023-10-06T14:46:05.362Z,77.40
2023-10-06T14:48:44.420Z,79.10
2023-10-06T14:51:20.838Z,78.60
2023-10-06T14:53:58.698Z,78.90
2023-10-06T14:56:35.100Z,79.60
2023-10-06T14:59:10.097Z,79.80
2023-10-06T15:01:43.827Z,80.40
2023-10-06T15:04:17.531Z,81.70
2023-10-06T15:06:54.222Z,82.30
2023-10-06T15:09:28.261Z,83.10
2023-10-06T15:12:03.751Z,83.60
2023-10-06T15:14:38.496Z,84.80
2023-10-06T15:17:12.879Z,86.30
2023-10-06T15:19:47.840Z,86.90
2023-10-06T15:22:23.569Z,87.10
2023-10-06T15:24:57.140Z,88.30
2023-10-06T15:27:32.545Z,89.90
2023-10-06T15:30:06.965Z,90.30
2023-10-06T15:32:46.269Z,91.10
2023-10-06T15:35:22.109Z,91.70
2023-10-06T15:37:57.468Z,92.10
2023-10-06T15:40:34.930Z,93.10
2023-10-06T15:43:19.930Z,94.10
2023-10-06T15:46:00.202Z,95.60
2023-10-06T15:48:35.392Z,98.00
2023-10-06T15:51:10.371Z,99.90
2023-10-06T15:53:45.852Z,99.90
2023-10-06T15:56:20.585Z,99.90
2023-10-06T15:58:57.014Z,99.90
2023-10-06T16:01:31.153Z,99.90
2023-10-06T16:04:05.748Z,99.90
2023-10-06T16:06:39.440Z,99.90
2023-10-06T16:09:18.271Z,99.90
2023-10-06T16:11:52.120Z,99.90
2023-10-06T16:14:27.186Z,99.90
2023-10-06T16:17:03.176Z,99.90
2023-10-06T16:19:37.790Z,99.90
2023-10-06T16:22:12.247Z,99.90
2023-10-06T16:24:45.795Z,99.90
2023-10-06T16:27:20.475Z,99.90
2023-10-06T16:29:56.991Z,99.90
2023-10-06T16:32:32.759Z,99.90
2023-10-06T16:35:07.195Z,99.90
2023-10-06T16:37:42.935Z,99.90
2023-10-06T16:40:16.589Z,99.90
2023-10-06T16:42:50.238Z,99.90
2023-10-06T16:45:25.800Z,99.90
2023-10-06T16:47:59.551Z,99.90
2023-10-06T16:50:33.868Z,99.90
2023-10-06T16:53:07.582Z,99.90
2023-10-06T16:56:00.621Z,99.90
2023-10-06T16:58:34.273Z,99.90
2023-10-06T17:01:09.845Z,99.90
2023-10-06T17:03:43.566Z,99.90
2023-10-06T17:06:19.616Z,99.90
2023-10-06T17:08:53.165Z,99.90
2023-10-06T17:11:26.927Z,99.90
2023-10-06T17:14:00.497Z,99.90
2023-10-06T17:16:39.213Z,99.90
2023-10-06T17:19:14.846Z,99.90
2023-10-06T17:21:48.450Z,99.90
2023-10-06T17:24:22.064Z,99.90
2023-10-06T17:26:55.708Z,99.90
2023-10-06T17:29:29.332Z,99.90
2023-10-06T17:32:04.352Z,99.90
2023-10-06T17:34:37.901Z,99.90
2023-10-06T17:37:29.826Z,99.90
2023-10-06T17:40:05.785Z,99.90
2023-10-06T17:42:45.097Z,99.90
2023-10-06T17:45:20.146Z,99.90
2023-10-06T17:47:56.619Z,99.90
2023-10-06T17:50:30.502Z,99.90
2023-10-06T17:53:04.600Z,99.90
2023-10-06T17:55:38.321Z,99.90
2023-10-06T17:58:12.026Z,99.90
2023-10-06T18:00:45.990Z,99.90
2023-10-06T18:03:21.046Z,99.90
2023-10-06T18:05:54.595Z,99.90
2023-10-06T18:08:28.854Z,99.90
2023-10-06T18:11:02.417Z,99.90
2023-10-06T18:13:37.887Z,99.90
2023-10-06T18:16:12.878Z,99.90
2023-10-06T18:18:48.031Z,99.90
2023-10-06T18:21:21.654Z,99.90
2023-10-06T18:23:57.868Z,99.90
2023-10-06T18:26:32.498Z,99.90
2023-10-06T18:29:06.610Z,99.90
2023-10-06T18:31:40.622Z,99.90
2023-10-06T18:34:15.869Z,99.90
2023-10-06T18:36:49.794Z,99.90
2023-10-06T18:39:25.830Z,99.90
2023-10-06T18:41:59.467Z,99.90
2023-10-06T18:44:32.985Z,99.90
2023-10-06T18:47:06.930Z,99.90
2023-10-06T18:49:41.990Z,99.90
2023-10-06T18:52:16.320Z,99.90
2023-10-06T18:54:50.708Z,99.90
2023-10-06T18:57:24.992Z,99.90
2023-10-06T18:59:58.635Z,99.90
2023-10-06T19:02:32.367Z,99.90
2023-10-06T19:05:08.406Z,99.90
2023-10-06T19:07:43.518Z,99.90
2023-10-06T19:10:17.185Z,99.90
2023-10-06T19:12:50.955Z,99.90
2023-10-06T19:15:24.771Z,99.90
2023-10-06T19:17:58.855Z,99.90
2023-10-06T19:20:34.310Z,99.90
2023-10-06T19:23:10.863Z,99.90
2023-10-06T19:25:47.481Z,99.90
2023-10-06T19:28:21.175Z,99.90
2023-10-06T19:30:58.198Z,99.90
2023-10-06T19:33:31.771Z,99.90
2023-10-06T19:36:09.122Z,99.90
2023-10-06T19:38:43.133Z,99.90
2023-10-06T19:41:18.721Z,99.90
2023-10-06T19:43:52.573Z,99.90
2023-10-06T19:46:26.488Z,99.90
2023-10-06T19:49:01.285Z,99.90
2023-10-06T19:51:36.306Z,99.90
2023-10-06T19:54:11.898Z,99.90
2023-10-06T19:56:46.418Z,99.90
2023-10-06T19:59:19.988Z,99.90
2023-10-06T20:01:53.608Z,99.90
2023-10-06T20:04:28.047Z,99.90
2023-10-06T20:07:03.371Z,99.90
2023-10-06T20:09:36.995Z,99.90
2023-10-06T20:12:13.984Z,99.90
2023-10-06T20:14:47.773Z,99.90
2023-10-06T20:17:21.571Z,99.90
2023-10-06T20:19:55.558Z,99.90
2023-10-06T20:22:32.186Z,99.90
2023-10-06T20:25:08.135Z,99.90
2023-10-06T20:27:47.505Z,99.90
2023-10-06T20:30:22.652Z,99.90
2023-10-06T20:32:57.517Z,99.90
2023-10-06T20:35:32.271Z,99.90
2023-10-06T20:38:07.399Z,99.90
2023-10-06T20:40:43.456Z,99.90
2023-10-06T20:43:17.986Z,99.90
2023-10-06T20:45:51.579Z,99.90
2023-10-06T20:48:25.826Z,99.90
2023-10-06T20:51:01.535Z,99.90
2023-10-06T20:53:37.300Z,99.90
2023-10-06T20:56:10.860Z,99.90
2023-10-06T20:58:45.382Z,99.90
2023-10-06T21:01:19.124Z,99.90
2023-10-06T21:03:53.143Z,99.90
2023-10-06T21:06:29.134Z,99.90
2023-10-06T21:09:06.442Z,99.90
2023-10-06T21:11:41.261Z,99.90
2023-10-06T21:14:17.406Z,99.90
2023-10-06T21:16:52.155Z,99.90
2023-10-06T21:19:25.886Z,99.90
2023-10-06T21:21:59.510Z,99.90
2023-10-06T21:24:34.760Z,99.90
2023-10-06T21:27:09.410Z,99.90
2023-10-06T21:29:43.372Z,99.90
2023-10-06T21:32:17.144Z,99.90
2023-10-06T21:34:50.864Z,99.90
2023-10-06T21:37:25.330Z,99.90
2023-10-06T21:40:00.375Z,99.90
2023-10-06T21:42:33.933Z,99.90
2023-10-06T21:45:08.712Z,99.90
2023-10-06T21:47:42.476Z,99.90
2023-10-06T21:50:16.616Z,99.90
2023-10-06T21:52:51.310Z,99.90
2023-10-06T21:55:27.352Z,99.90
2023-10-06T21:58:01.375Z,99.90
2023-10-06T22:00:35.306Z,99.90
2023-10-06T22:03:08.954Z,99.90
2023-10-06T22:05:42.729Z,99.90
2023-10-06T22:08:16.430Z,99.90
2023-10-06T22:10:51.467Z,99.90
2023-10-06T22:13:25.221Z,99.90
2023-10-06T22:15:58.805Z,99.90
2023-10-06T22:18:32.380Z,99.90
2023-10-06T22:21:05.962Z,99.90
2023-10-06T22:23:39.590Z,99.90
2023-10-06T22:26:15.651Z,99.90
2023-10-06T22:28:49.567Z,99.90
2023-10-06T22:31:23.160Z,99.90
2023-10-06T22:33:57.490Z,99.90
2023-10-06T22:36:31.113Z,99.90
2023-10-06T22:39:06.164Z,99.90
2023-10-06T22:41:41.266Z,99.90
2023-10-06T22:44:14.794Z,99.90
2023-10-06T22:46:48.856Z,99.90
2023-10-06T22:49:22.609Z,99.90
2023-10-06T22:51:56.168Z,99.90
2023-10-06T22:54:29.716Z,99.90
2023-10-06T22:57:06.710Z,99.90
2023-10-06T22:59:40.263Z,99.90
2023-10-06T23:02:13.837Z,99.90
2023-10-06T23:04:47.393Z,99.90
2023-10-06T23:07:21.978Z,99.90
2023-10-06T23:09:57.658Z,99.90
2023-10-06T23:12:32.580Z,99.90
2023-10-06T23:15:08.098Z,99.90
2023-10-06T23:17:42.679Z,99.90
2023-10-06T23:20:25.380Z,99.90
2023-10-06T23:23:00.420Z,99.90
2023-10-06T23:25:37.910Z,99.90
2023-10-06T23:28:13.069Z,99.90
2023-10-06T23:30:47.150Z,99.90
2023-10-06T23:33:21.840Z,99.90
2023-10-06T23:35:55.519Z,99.90
2023-10-06T23:38:30.542Z,99.90
2023-10-06T23:41:09.625Z,99.90
2023-10-06T23:43:46.344Z,99.90
2023-10-06T23:46:22.390Z,99.90
2023-10-06T23:48:56.308Z,99.90
2023-10-06T23:51:33.708Z,99.90
2023-10-06T23:54:10.201Z,99.90
2023-10-06T23:56:44.005Z,99.90
2023-10-06T23:59:22.612Z,99.90
